Latest Weather Observations for Sydney Airport

IDN60901

Issued at 2:51 pm EDT Saturday 22 February 2020 (issued every 10 minutes, with the page automatically refreshed every 10 minutes)

About weather observations | Map of Sydney area stations | Latest observations for Sydney area | Other Formats
Station Details ID: 066037 Name: SYDNEY AIRPORT AMO Lat: -33.95 Lon: 151.17 Height: 6.0 m
Data from the previous 72 hours. | See also: Recent months at Sydney Airport
Date/Time
EDT
Temp
°C
App
Temp
°C
Dew
Point
°C
Rel
Hum
%
Delta-T
°C
Wind Press
QNH
hPa
Press
MSL
hPa
Rain since
9am
mm
Dir  Spd
km/h
Gust
km/h
Spd
kts
Gust
kts
22/02:30pm 21.2 21.2 17.2 78 2.4 S 13 17 7 9 1023.7 1023.7 0.0
22/02:00pm 21.7 21.1 16.6 73 3.1 S 15 17 8 9 1023.8 1023.8 0.0
22/01:30pm 22.2 21.4 16.2 69 3.6 S 15 19 8 10 1024.0 1024.0 0.0
22/01:00pm 22.7 22.5 16.7 69 3.6 S 13 19 7 10 1024.2 1024.2 0.0
22/12:30pm 22.3 21.3 14.7 62 4.5 S 13 20 7 11 1024.6 1024.6 0.0
22/12:00pm 22.7 21.8 14.8 61 4.7 SE 13 19 7 10 1024.8 1024.8 0.0
22/11:30am 21.3 20.5 15.2 68 3.6 E 13 17 7 9 1025.0 1025.0 0.0
22/11:00am 20.6 18.9 16.2 76 2.6 ENE 20 30 11 16 1025.0 1025.0 0.0
22/10:30am 22.0 20.1 13.1 57 5.1 SSE 15 20 8 11 1024.6 1024.6 0.0
22/10:00am 22.2 20.2 13.8 59 4.9 SSE 17 20 9 11 1024.2 1024.2 0.0
22/09:30am 22.1 20.5 14.0 60 4.7 SSE 15 19 8 10 1024.0 1024.0 0.0
22/09:00am 21.5 20.1 14.4 64 4.1 SSE 15 20 8 11 1023.9 1023.9 0.4
22/08:30am 20.5 19.5 16.7 79 2.3 S 17 22 9 12 1023.5 1023.5 0.4
22/08:00am 20.1 18.7 17.1 83 1.8 S 20 28 11 15 1023.2 1023.2 0.4
22/07:30am 19.9 19.4 16.9 83 1.8 S 15 20 8 11 1022.9 1022.9 0.4
22/07:00am 19.3 18.3 16.5 84 1.7 S 17 22 9 12 1022.5 1022.5 0.4
22/06:30am 19.8 19.0 17.2 85 1.6 S 17 26 9 14 1022.0 1022.0 0.4
22/06:00am 18.9 16.8 17.2 90 1.0 SSW 24 30 13 16 1021.8 1021.8 0.4
22/05:30am 18.8 16.5 17.5 92 0.8 SSW 26 32 14 17 1021.5 1021.5 0.4
22/05:00am 18.5 15.7 17.3 93 0.7 SSW 28 32 15 17 1021.4 1021.4 0.4
22/04:30am 18.8 16.2 17.8 94 0.6 SSW 28 35 15 19 1021.2 1021.2 0.4
22/04:00am 18.8 16.2 17.8 94 0.6 SSW 28 32 15 17 1021.2 1021.2 0.4
22/03:30am 18.9 15.7 18.1 95 0.5 SSW 32 39 17 21 1021.0 1021.0 0.4
22/03:00am 19.0 16.0 17.8 93 0.7 SSW 30 35 16 19 1021.1 1021.1 0.0
22/02:30am 18.8 15.2 17.3 91 0.9 SSW 32 37 17 20 1021.2 1021.2 0.0
22/02:00am 19.3 16.2 17.4 89 1.2 SSW 30 35 16 19 1021.2 1021.2 0.0
22/01:30am 19.8 17.4 17.4 86 1.5 SW 26 33 14 18 1021.1 1021.1 0.0
22/01:00am 20.0 18.6 16.6 81 2.0 SSE 19 24 10 13 1021.0 1021.0 0.0
22/12:30am 21.1 19.7 17.1 78 2.4 SE 20 28 11 15 1020.9 1020.9 0.0
22/12:00am 20.7 19.5 17.1 80 2.2 SE 19 26 10 14 1020.9 1020.9 0.0
 
Date/Time
EDT
Temp
°C
App
Temp
°C
Dew
Point
°C
Rel
Hum
%
Delta-T
°C
Wind Press
QNH
hPa
Press
MSL
hPa
Rain since
9am
mm
Dir  Spd
km/h
Gust
km/h
Spd
kts
Gust
kts
21/11:30pm 21.4 19.6 15.9 71 3.3 SE 20 26 11 14 1020.7 1020.7 0.0
21/11:00pm 21.9 20.2 16.2 70 3.4 SE 20 28 11 15 1020.7 1020.7 0.0
21/10:30pm 21.5 19.4 16.2 72 3.2 SE 22 30 12 16 1020.5 1020.5 0.0
21/10:00pm 21.0 18.5 16.2 74 2.9 SE 24 32 13 17 1020.1 1020.1 0.0
21/09:30pm 21.4 19.1 16.6 74 2.9 SE 24 32 13 17 1019.8 1019.8 0.0
21/09:00pm 21.3 18.6 16.5 74 2.9 SE 26 33 14 18 1019.5 1019.5 0.0
21/08:30pm 21.4 18.7 16.6 74 2.9 SE 26 32 14 17 1019.1 1019.1 0.0
21/08:00pm 21.6 18.9 16.6 73 3.0 SE 26 33 14 18 1018.7 1018.7 0.0
21/07:30pm 21.7 19.2 17.1 75 2.8 SE 26 33 14 18 1018.2 1018.2 0.0
21/07:00pm 22.5 19.9 16.8 70 3.5 SE 26 35 14 19 1017.8 1017.8 0.0
21/06:30pm 22.4 20.3 15.3 64 4.2 SE 20 28 11 15 1017.3 1017.3 0.0
21/06:00pm 23.3 20.7 15.9 63 4.5 SE 24 30 13 16 1016.9 1016.9 0.0
21/05:30pm 23.2 21.1 15.3 61 4.7 SE 20 28 11 15 1016.6 1016.6 0.0
21/05:00pm 23.9 21.4 15.1 58 5.3 SE 22 28 12 15 1016.3 1016.3 0.0
21/04:30pm 23.6 21.6 15.6 61 4.8 SE 20 26 11 14 1016.2 1016.2 0.0
21/04:00pm 23.6 21.6 15.6 61 4.8 SE 20 28 11 15 1016.2 1016.2 0.0
21/03:30pm 24.1 22.3 15.9 60 5.0 SE 20 26 11 14 1016.0 1016.0 0.0
21/03:00pm 24.3 21.6 14.7 55 5.7 SE 22 28 12 15 1016.1 1016.1 0.0
21/02:30pm 23.5 21.3 15.0 59 5.1 SSE 20 26 11 14 1016.4 1016.4 0.0
21/02:00pm 23.1 21.4 14.7 59 5.0 SSE 17 24 9 13 1016.3 1016.3 0.0
21/01:30pm 24.5 23.7 16.2 60 5.1 SE 15 19 8 10 1016.6 1016.6 0.0
21/01:00pm 23.5 21.9 15.0 59 5.1 SE 17 22 9 12 1016.6 1016.6 0.0
21/12:30pm 23.1 22.0 15.4 62 4.6 SE 15 19 8 10 1016.8 1016.8 0.0
21/12:00pm 23.0 21.9 15.3 62 4.6 SE 15 20 8 11 1016.7 1016.7 0.0
21/11:30am 22.5 21.6 14.9 62 4.5 SE 13 17 7 9 1016.8 1016.8 0.0
21/11:00am 22.9 22.6 16.4 67 3.9 SSE 13 19 7 10 1016.7 1016.7 0.0
21/10:30am 21.8 22.2 16.3 71 3.3 SSE 9 13 5 7 1016.8 1016.8 0.0
21/10:00am 22.2 22.9 16.2 69 3.6 S 7 11 4 6 1016.7 1016.7 0.0
21/09:30am 21.6 22.4 16.3 72 3.2 SSW 7 20 4 11 1016.5 1016.5 0.0
21/09:00am 21.3 21.6 16.9 76 2.7 S 11 17 6 9 1016.5 1016.5 0.0
21/08:30am 20.7 20.5 16.7 78 2.4 S 13 17 7 9 1016.3 1016.3 0.0
21/08:00am 20.6 20.1 16.8 79 2.3 SSW 15 17 8 9 1016.1 1016.1 0.0
21/07:30am 20.3 20.2 16.9 81 2.1 SSW 13 17 7 9 1015.8 1015.8 0.0
21/07:00am 20.0 19.2 16.2 79 2.3 SSW 15 19 8 10 1015.6 1015.6 0.0
21/06:30am 20.8 22.5 15.1 70 3.4 CALM 0 0 0 0 1015.0 1015.0 0.0
21/06:00am 20.7 22.4 15.3 71 3.2 CALM 0 0 0 0 1014.9 1014.9 0.0
21/05:30am 20.5 22.3 15.5 73 3.0 CALM 0 0 0 0 1014.4 1014.4 0.0
21/05:00am 20.3 22.3 15.9 76 2.6 CALM 0 0 0 0 1014.1 1014.1 0.0
21/04:30am 20.4 22.1 15.2 72 3.1 CALM 0 0 0 0 1014.0 1014.0 0.0
21/04:00am 20.6 22.2 14.9 70 3.3 CALM 0 0 0 0 1014.2 1014.2 0.0
21/03:30am 20.7 22.0 14.1 66 3.8 CALM 0 0 0 0 1014.2 1014.2 0.0
21/03:00am 20.8 22.1 14.0 65 3.9 CALM 0 0 0 0 1014.2 1014.2 0.0
21/02:30am 20.9 22.0 13.6 63 4.2 CALM 0 0 0 0 1014.6 1014.6 0.0
21/02:00am 20.9 22.1 13.8 64 4.1 CALM 0 0 0 0 1014.6 1014.6 0.0
21/01:30am 21.0 22.1 13.4 62 4.4 CALM 0 0 0 0 1014.7 1014.7 0.0
21/01:00am 20.9 21.2 13.4 62 4.3 ESE 4 9 2 5 1015.0 1015.0 0.0
21/12:30am 21.0 20.9 13.2 61 4.5 ESE 6 13 3 7 1015.0 1015.0 0.0
21/12:00am 21.2 19.8 13.4 61 4.5 SE 13 17 7 9 1014.8 1014.8 0.0
 
Date/Time
EDT
Temp
°C
App
Temp
°C
Dew
Point
°C
Rel
Hum
%
Delta-T
°C
Wind Press
QNH
hPa
Press
MSL
hPa
Rain since
9am
mm
Dir  Spd
km/h
Gust
km/h
Spd
kts
Gust
kts
20/11:30pm 21.0 20.0 13.4 62 4.4 SE 11 15 6 8 1015.0 1015.0 0.0
20/11:00pm 21.0 19.9 13.2 61 4.5 ESE 11 13 6 7 1015.0 1015.0 0.0
20/10:30pm 21.1 20.3 13.0 60 4.6 SE 9 13 5 7 1015.1 1015.1 0.0
20/10:00pm 21.2 19.8 13.4 61 4.5 SE 13 15 7 8 1014.8 1014.8 0.0
20/09:30pm 20.9 18.6 13.1 61 4.4 SE 17 20 9 11 1014.5 1014.5 0.0
20/09:00pm 20.8 19.1 13.5 63 4.2 SE 15 19 8 10 1014.2 1014.2 0.0
20/08:30pm 20.8 18.1 12.8 60 4.5 SSE 19 26 10 14 1013.9 1013.9 0.0
20/08:00pm 20.9 18.0 12.8 60 4.6 SSE 20 28 11 15 1013.2 1013.2 0.0
20/07:30pm 21.0 18.3 13.4 62 4.4 SE 20 28 11 15 1012.7 1012.7 0.0
20/07:00pm 21.4 18.8 13.8 62 4.4 SE 20 28 11 15 1012.3 1012.3 0.0
20/06:30pm 21.4 17.9 13.3 60 4.6 SE 24 32 13 17 1012.0 1012.0 0.0
20/06:00pm 22.3 18.9 13.6 58 5.0 SE 24 30 13 16 1011.7 1011.7 0.0
20/05:30pm 22.7 19.4 12.9 54 5.6 SSE 22 30 12 16 1011.7 1011.7 0.0
20/05:00pm 22.7 19.0 12.6 53 5.8 SSE 24 33 13 18 1011.5 1011.5 0.0
20/04:30pm 22.9 19.2 12.8 53 5.8 SE 24 33 13 18 1011.2 1011.2 0.0
20/04:00pm 22.6 18.9 12.8 54 5.6 SSE 24 35 13 19 1011.2 1011.2 0.0
20/03:30pm 23.2 19.7 13.4 54 5.7 SSE 24 33 13 18 1011.1 1011.1 0.0
20/03:00pm 22.1 17.9 12.4 54 5.5 SSE 26 32 14 17 1011.2 1011.2 0.0
20/02:30pm 22.5 18.8 13.8 58 5.1 SSE 26 33 14 18 1011.2 1011.2 0.0
20/02:00pm 22.5 18.7 13.6 57 5.2 SSE 26 33 14 18 1011.3 1011.3 0.0
20/01:30pm 22.7 18.5 12.3 52 5.9 S 26 33 14 18 1011.4 1011.4 0.0
20/01:00pm 21.5 17.0 12.6 57 5.0 S 28 35 15 19 1011.3 1011.3 0.0
20/12:30pm 21.6 17.2 13.0 58 4.9 S 28 35 15 19 1011.3 1011.3 0.0
20/12:00pm 21.4 17.3 13.8 62 4.4 S 28 35 15 19 1011.6 1011.6 0.0
20/11:30am 22.0 18.2 14.6 63 4.4 S 28 37 15 20 1011.6 1011.6 0.0
20/11:00am 22.0 17.7 14.4 62 4.5 S 30 33 16 18 1011.6 1011.6 0.0
20/10:30am 21.8 17.8 14.2 62 4.4 S 28 39 15 21 1011.4 1011.4 0.0
20/10:00am 21.3 17.0 14.5 65 4.0 SSW 30 35 16 19 1011.3 1011.3 0.0
20/09:30am 21.3 16.9 15.2 68 3.6 SSW 32 39 17 21 1011.0 1011.0 0.0
20/09:00am 20.8 18.1 15.6 72 3.1 SSW 24 33 13 18 1010.7 1010.7 0.0
20/08:30am 19.6 21.3 15.3 76 2.5 CALM 0 0 0 0 1010.3 1010.3 0.0
20/08:00am 19.9 21.5 14.9 73 2.9 CALM 0 6 0 3 1010.2 1010.2 0.0
20/07:30am 18.7 19.7 14.4 76 2.5 WNW 2 7 1 4 1009.8 1009.8 0.0
20/07:00am 19.0 19.0 14.1 73 2.8 WNW 7 13 4 7 1009.2 1009.2 0.0
20/06:30am 19.2 20.5 14.0 72 3.0 CALM 0 7 0 4 1008.7 1008.7 0.0
20/06:00am 18.7 18.9 14.6 77 2.4 NW 7 9 4 5 1008.3 1008.3 0.0
20/05:30am 18.6 19.4 14.7 78 2.3 WSW 4 11 2 6 1008.1 1008.1 0.0
20/05:00am 19.1 21.1 16.0 82 1.8 CALM 0 0 0 0 1007.5 1007.5 0.0
20/04:30am 18.7 18.9 15.8 83 1.7 WSW 9 11 5 6 1007.3 1007.3 0.0
20/04:00am 19.0 19.7 16.0 83 1.8 WSW 7 11 4 6 1007.1 1007.1 0.0
20/03:30am 19.2 19.8 15.9 81 2.0 WSW 7 11 4 6 1007.1 1007.1 0.0
20/03:00am 19.5 21.0 15.8 79 2.2 SW 2 9 1 5 1007.1 1007.1 0.0
20/02:30am 20.0 19.8 15.8 77 2.5 SSW 11 13 6 7 1007.3 1007.3 0.0
20/02:00am 20.4 20.2 15.8 75 2.7 SSW 11 13 6 7 1007.4 1007.4 0.0
20/01:30am 20.6 20.6 16.2 76 2.6 S 11 19 6 10 1007.5 1007.5 0.0
20/01:00am 20.9 20.2 16.5 76 2.7 S 15 17 8 9 1007.7 1007.7 0.0
20/12:30am 21.1 19.9 17.1 78 2.4 S 19 26 10 14 1007.8 1007.8 0.0
20/12:00am 21.2 20.4 17.0 77 2.6 SSW 17 20 9 11 1007.7 1007.7 0.0
 
Date/Time
EDT
Temp
°C
App
Temp
°C
Dew
Point
°C
Rel
Hum
%
Delta-T
°C
Wind Press
QNH
hPa
Press
MSL
hPa
Rain since
9am
mm
Dir  Spd
km/h
Gust
km/h
Spd
kts
Gust
kts
19/11:30pm 21.2 20.1 17.2 78 2.4 SSW 19 26 10 14 1007.9 1007.9 0.0
19/11:00pm 21.4 19.9 16.8 75 2.8 SSW 20 28 11 15 1007.7 1007.7 0.0
19/10:30pm 22.3 19.7 9.5 44 6.9 WSW 13 20 7 11 1007.4 1007.4 0.0
19/10:00pm 22.3 19.4 9.5 44 6.9 WSW 15 28 8 15 1007.3 1007.3 0.0
19/09:30pm 23.1 19.4 8.0 38 7.9 W 17 24 9 13 1007.0 1007.0 0.0
19/09:00pm 23.8 19.7 8.6 38 8.1 W 20 26 11 14 1006.5 1006.5 0.0
19/08:30pm 24.1 17.5 7.7 35 8.6 WSW 32 39 17 21 1006.0 1006.0 0.0
19/08:00pm 24.6 17.4 7.7 34 9.0 WSW 35 43 19 23 1005.2 1005.2 0.0
19/07:30pm 24.8 17.2 7.4 33 9.2 WSW 37 48 20 26 1004.7 1004.7 0.0
19/07:00pm 25.7 18.3 8.2 33 9.4 WSW 37 44 20 24 1004.0 1004.0 0.0
19/06:30pm 26.5 18.5 7.5 30 10.1 WSW 39 50 21 27 1003.7 1003.7 0.0
19/06:00pm 26.9 20.0 8.8 32 9.9 WSW 35 54 19 29 1003.2 1003.2 0.0
19/05:30pm 26.9 20.1 9.3 33 9.7 WSW 35 46 19 25 1002.7 1002.7 0.0
19/05:00pm 27.9 21.7 9.2 31 10.4 WSW 32 41 17 22 1002.7 1002.7 0.0
19/04:30pm 28.2 22.8 9.5 31 10.4 WSW 28 39 15 21 1002.4 1002.4 0.0
19/04:00pm 28.6 24.5 8.8 29 10.9 W 20 30 11 16 1002.5 1002.5 0.0
19/03:30pm 28.3 25.4 8.1 28 11.0 W 13 24 7 13 1002.5 1002.5 0.0
19/03:00pm 29.1 26.1 9.3 29 11.1 W 15 30 8 16 1002.6 1002.6 0.0

Latest Capital City Observations: Canberra | Sydney | Melbourne | Brisbane | Adelaide | Perth | Hobart | Darwin

Other formats

Comma delimited format used in spreadsheet applications
http://www.bom.gov.au/fwo/IDN60901/IDN60901.94767.axf

JavaScript Object Notation format (JSON) in row-major order
http://www.bom.gov.au/fwo/IDN60901/IDN60901.94767.json

Data quality

Most of these data are generated automatically and are frequently updated. Quality checks on data are not normally performed. It is possible for incorrect values to appear. Refer to information at About Latest Weather Observations and please check the disclaimer before using these data.